Time;durP1;ratioP1;P1;durP2;ratioP2;P2;SDS_P1;SDS_P2;PMS_P1;PMS_P2;Temp;Humidity;BMP_temperature;BMP_pressure;BME280_temperature;BME280_humidity;BME280_pressure;Samples;Min_cycle;Max_cycle;Signal;HPM_P1;HPM_P2
2023/08/14 01:44:25;;;;;;;5.87;5.30;;;;;;;16.39;100.00;96267.03;7406270;19;20761;-89
2023/08/14 01:47:53;;;;;;;7.47;6.83;;;;;;;15.77;100.00;96184.78;7405665;19;20412;-90
2023/08/14 01:51:02;;;;;;;8.30;6.27;;;;;;;16.25;100.00;96256.97;7397158;19;20435;-90
2023/08/14 01:53:33;;;;;;;14.37;6.90;;;;;;;15.75;100.00;96194.25;7403895;19;20485;-91
2023/08/14 01:56:01;;;;;;;6.27;5.70;;;;;;;15.45;100.00;96130.28;7402253;19;20392;-90
2023/08/14 01:58:29;;;;;;;7.00;6.40;;;;;;;15.12;100.00;96101.72;7403979;19;20404;-89
2023/08/14 02:00:56;;;;;;;6.50;6.00;;;;;;;15.82;100.00;96168.47;7401610;19;20428;-91
2023/08/14 02:03:25;;;;;;;6.87;6.30;;;;;;;15.52;100.00;96122.41;7401929;19;20377;-90
2023/08/14 02:05:52;;;;;;;7.30;6.60;;;;;;;15.54;100.00;96131.56;7403158;19;20385;-90
2023/08/14 02:08:19;;;;;;;8.80;6.70;;;;;;;15.45;100.00;96104.41;7403482;19;20739;-89
2023/08/14 02:10:46;;;;;;;6.33;5.80;;;;;;;15.85;100.00;96150.97;7399706;19;20418;-91
2023/08/14 02:13:14;;;;;;;6.80;6.30;;;;;;;16.11;100.00;96182.09;7401328;19;20381;-90
2023/08/14 02:15:44;;;;;;;6.30;5.70;;;;;;;15.71;100.00;96150.81;7400536;19;20436;-90
2023/08/14 02:18:13;;;;;;;9.20;5.87;;;;;;;15.41;100.00;96121.50;7430208;19;20369;-90
2023/08/14 02:20:49;;;;;;;8.53;6.77;;;;;;;14.68;100.00;96027.72;7424507;19;20413;-89
2023/08/14 02:23:16;;;;;;;6.67;6.17;;;;;;;15.17;100.00;96082.75;7403898;19;20381;-90
2023/08/14 02:25:44;;;;;;;9.30;7.10;;;;;;;16.02;100.00;96208.28;7402412;19;20705;-90
2023/08/14 02:28:11;;;;;;;7.40;6.80;;;;;;;14.93;100.00;96044.03;7401479;19;20392;-90
2023/08/14 02:30:42;;;;;;;9.93;8.43;;;;;;;15.43;100.00;96116.56;7399867;19;20420;-90
2023/08/14 02:33:09;;;;;;;8.03;6.30;;;;;;;15.86;100.00;96171.16;7400669;19;20381;-90
2023/08/14 02:35:36;;;;;;;9.40;7.67;;;;;;;15.76;100.00;96142.47;7401532;19;20388;-90
2023/08/14 02:38:07;;;;;;;7.70;7.10;;;;;;;15.10;100.00;96032.09;7405499;19;20381;-89
2023/08/14 02:40:37;;;;;;;7.63;6.83;;;;;;;16.16;100.00;96198.56;7402065;19;20431;-90
2023/08/14 02:43:04;;;;;;;7.43;6.60;;;;;;;15.94;100.00;96160.22;7400467;19;20925;-90
2023/08/14 02:45:32;;;;;;;6.90;6.20;;;;;;;16.11;100.00;96161.53;7403735;19;20404;-90
2023/08/14 02:47:59;;;;;;;7.13;6.50;;;;;;;16.24;100.00;96181.50;7399436;19;20384;-90
2023/08/14 02:50:28;;;;;;;7.00;6.37;;;;;;;16.08;100.00;96150.84;7402012;19;20808;-90
2023/08/14 02:52:55;;;;;;;7.30;6.60;;;;;;;15.50;100.00;96095.34;7397754;19;20385;-90
2023/08/14 02:55:22;;;;;;;7.70;6.07;;;;;;;15.44;100.00;96084.22;7398683;19;20927;-90
2023/08/14 02:57:50;;;;;;;6.83;6.17;;;;;;;15.40;100.00;96080.00;7401173;19;20384;-90
2023/08/14 03:00:20;;;;;;;6.73;6.13;;;;;;;14.64;100.00;96017.03;7413788;19;20397;-90
2023/08/14 03:02:47;;;;;;;6.97;6.33;;;;;;;15.07;100.00;96081.47;7421756;19;20396;-90
2023/08/14 03:05:14;;;;;;;7.40;6.77;;;;;;;15.43;100.00;96127.22;7403220;19;20915;-90
2023/08/14 03:07:41;;;;;;;7.20;6.50;;;;;;;15.59;100.00;96149.13;7400075;19;20397;-90
2023/08/14 03:10:09;;;;;;;8.97;6.77;;;;;;;15.94;100.00;96175.47;7404090;19;20421;-90
2023/08/14 03:12:36;;;;;;;8.10;7.50;;;;;;;16.12;100.00;96183.66;7428236;19;20400;-90
2023/08/14 03:15:04;;;;;;;7.43;6.80;;;;;;;16.50;100.00;96243.88;7403565;19;20403;-90
2023/08/14 03:17:32;;;;;;;6.77;6.27;;;;;;;16.24;100.00;96231.41;7401229;19;20393;-90
2023/08/14 03:19:59;;;;;;;7.60;6.90;;;;;;;15.49;100.00;96141.75;7396302;19;20422;-90
2023/08/14 03:22:26;;;;;;;7.70;7.10;;;;;;;16.07;100.00;96210.66;7426490;19;20397;-92
2023/08/14 03:24:53;;;;;;;7.83;7.03;;;;;;;15.01;100.00;96049.09;7405098;19;20392;-90
2023/08/14 03:27:20;;;;;;;8.60;7.03;;;;;;;15.55;100.00;96127.00;7399755;19;20429;-90
2023/08/14 03:29:47;;;;;;;7.63;6.93;;;;;;;16.15;100.00;96205.00;7396107;19;20928;-90
2023/08/14 03:32:14;;;;;;;7.27;6.70;;;;;;;16.14;100.00;96205.38;7399623;19;20422;-90
2023/08/14 03:34:41;;;;;;;7.17;6.57;;;;;;;15.95;100.00;96167.09;7397804;19;20396;-90
2023/08/14 03:37:09;;;;;;;6.47;5.97;;;;;;;15.28;100.00;96060.44;7399050;19;20380;-90
2023/08/14 03:39:39;;;;;;;7.33;6.73;;;;;;;16.14;100.00;96192.81;7397391;19;20417;-90
2023/08/14 03:42:06;;;;;;;7.50;6.80;;;;;;;16.66;100.00;96260.44;7397781;19;20453;-90
2023/08/14 03:44:33;;;;;;;7.70;7.03;;;;;;;16.19;100.00;96200.50;7398082;19;20380;-90
2023/08/14 03:47:01;;;;;;;7.97;7.37;;;;;;;16.36;100.00;96207.16;7399333;19;20388;-90
2023/08/14 03:49:29;;;;;;;7.80;7.10;;;;;;;16.69;100.00;96248.28;7397201;19;20435;-90
2023/08/14 03:51:56;;;;;;;8.03;6.70;;;;;;;16.34;100.00;96198.75;7399850;19;20938;-90
2023/08/14 03:54:23;;;;;;;6.40;5.90;;;;;;;15.83;100.00;96131.91;7397747;19;20452;-90
2023/08/14 03:56:50;;;;;;;7.50;6.80;;;;;;;16.05;100.00;96162.25;7399762;19;20377;-90
2023/08/14 03:59:17;;;;;;;7.50;6.93;;;;;;;15.50;100.00;96076.69;7396754;19;20476;-90
2023/08/14 04:01:44;;;;;;;5.90;5.37;;;;;;;16.08;100.00;96172.19;7401631;19;20397;-90
2023/08/14 04:04:11;;;;;;;8.30;7.57;;;;;;;15.94;100.00;96148.78;7403382;19;20376;-90
2023/08/14 04:06:38;;;;;;;7.30;6.67;;;;;;;15.64;100.00;96128.28;7408306;19;20385;-90
2023/08/14 04:09:05;;;;;;;7.43;6.73;;;;;;;15.25;100.00;96063.84;7403389;19;20434;-90
2023/08/14 04:11:33;;;;;;;7.83;7.10;;;;;;;15.11;100.00;96050.34;7398325;19;20385;-90
2023/08/14 04:14:00;;;;;;;7.77;7.10;;;;;;;15.77;100.00;96146.72;7398200;19;20415;-90
2023/08/14 04:16:41;;;;;;;6.50;5.90;;;;;;;16.39;100.00;96243.78;7398866;19;20377;-90
2023/08/14 04:19:11;;;;;;;9.53;7.50;;;;;;;15.42;100.00;96109.72;7398230;19;20400;-90
2023/08/14 04:21:38;;;;;;;7.47;6.80;;;;;;;16.06;100.00;96187.78;7395554;19;20915;-90
2023/08/14 04:24:06;;;;;;;7.70;7.10;;;;;;;16.51;100.00;96240.84;7397659;19;20380;-89
2023/08/14 04:26:36;;;;;;;7.03;6.43;;;;;;;15.98;100.00;96170.91;7396526;19;20388;-90
2023/08/14 04:29:08;;;;;;;6.07;5.57;;;;;;;16.26;100.00;96221.13;7397444;19;20949;-90
2023/08/14 04:31:40;;;;;;;11.30;6.67;;;;;;;16.12;100.00;96243.09;7396978;19;20393;-90
2023/08/14 04:34:08;;;;;;;7.57;6.70;;;;;;;15.59;100.00;96144.56;7399194;19;20741;-90
2023/08/14 04:36:37;;;;;;;7.67;6.97;;;;;;;15.25;100.00;96114.44;7397759;19;20400;-90
2023/08/14 04:39:07;;;;;;;8.97;6.90;;;;;;;15.60;100.00;96161.34;7397531;19;20412;-90
2023/08/14 04:41:36;;;;;;;7.50;6.90;;;;;;;16.27;100.00;96244.03;7396803;19;20395;-90
2023/08/14 04:44:03;;;;;;;7.63;7.00;;;;;;;15.52;100.00;96128.50;7395942;19;20426;-91
2023/08/14 04:46:35;;;;;;;8.87;8.07;;;;;;;16.01;100.00;96198.75;7398555;19;20397;-91
2023/08/14 04:49:23;;;;;;;9.10;8.30;;;;;;;15.83;100.00;96170.00;7396826;19;20504;-91
2023/08/14 04:51:50;;;;;;;8.67;7.87;;;;;;;15.95;100.00;96175.09;7399786;19;20393;-91
2023/08/14 04:54:17;;;;;;;9.80;8.67;;;;;;;15.66;100.00;96125.25;7404772;19;20389;-91
2023/08/14 04:56:44;;;;;;;11.80;10.60;;;;;;;16.39;100.00;96221.66;7398533;19;20409;-92
2023/08/14 04:59:12;;;;;;;18.87;11.40;;;;;;;16.67;100.00;96245.19;7395577;19;20432;-92
2023/08/14 05:01:39;;;;;;;11.23;10.20;;;;;;;16.32;100.00;96190.34;7395369;19;20368;-91
2023/08/14 05:04:06;;;;;;;11.57;10.67;;;;;;;16.46;100.00;96201.16;7403266;19;20380;-91
2023/08/14 05:06:34;;;;;;;12.57;11.23;;;;;;;16.59;100.00;96198.22;7406857;19;20381;-91
2023/08/14 05:09:01;;;;;;;12.80;11.53;;;;;;;17.00;100.00;96239.03;7403664;19;20409;-91
2023/08/14 05:11:46;;;;;;;10.73;9.83;;;;;;;15.98;100.00;96079.50;7405207;19;20423;-91
2023/08/14 05:14:13;;;;;;;11.57;10.33;;;;;;;16.63;100.00;96191.78;7402937;19;20388;-91
2023/08/14 05:16:41;;;;;;;12.70;11.70;;;;;;;15.79;100.00;96051.13;7405116;19;20384;-91
2023/08/14 05:19:08;;;;;;;12.37;11.37;;;;;;;16.87;100.00;96209.16;7404051;19;20408;-91
2023/08/14 05:21:35;;;;;;;11.77;10.67;;;;;;;16.10;100.00;96120.00;7406214;19;20381;-91
2023/08/14 05:24:02;;;;;;;11.10;10.00;;;;;;;16.19;100.00;96136.47;7414574;19;20376;-91
2023/08/14 05:26:29;;;;;;;11.30;10.23;;;;;;;15.96;100.00;96117.97;7415614;19;20432;-91
2023/08/14 05:28:56;;;;;;;11.00;10.00;;;;;;;16.07;100.00;96119.97;7432287;19;20432;-92
2023/08/14 05:31:23;;;;;;;13.10;9.40;;;;;;;15.72;100.00;96057.16;7418894;19;20468;-91
2023/08/14 05:33:50;;;;;;;9.90;9.10;;;;;;;16.35;100.00;96162.16;7407226;19;20470;-91
2023/08/14 05:36:17;;;;;;;10.90;9.80;;;;;;;16.59;100.00;96185.63;7403215;19;20399;-91
2023/08/14 05:38:47;;;;;;;10.23;9.33;;;;;;;16.58;100.00;96178.00;7403337;19;20393;-92
2023/08/14 05:41:14;;;;;;;12.97;9.77;;;;;;;15.80;100.00;96058.75;7403833;19;20380;-91
2023/08/14 05:43:41;;;;;;;10.40;9.40;;;;;;;15.85;100.00;96046.97;7398980;19;20384;-91
2023/08/14 05:46:11;;;;;;;9.50;8.63;;;;;;;16.66;100.00;96160.88;7403606;19;20721;-91
2023/08/14 05:48:38;;;;;;;11.50;10.30;;;;;;;16.79;100.00;96146.91;7403837;19;20377;-92
2023/08/14 05:51:05;;;;;;;8.83;8.10;;;;;;;16.91;100.00;96132.50;7402537;19;20415;-92
2023/08/14 05:53:32;;;;;;;10.03;7.40;;;;;;;16.78;100.00;96086.63;7404984;19;20505;-92
2023/08/14 05:55:59;;;;;;;7.87;7.23;;;;;;;17.06;100.00;96136.03;7403881;19;20396;-92
2023/08/14 05:58:26;;;;;;;7.50;6.70;;;;;;;17.00;100.00;96130.28;7402013;19;20373;-92
2023/08/14 06:00:53;;;;;;;7.50;6.80;;;;;;;17.18;100.00;96137.63;7400226;19;20436;-92
2023/08/14 06:03:21;;;;;;;7.43;6.83;;;;;;;17.45;100.00;96165.66;7401126;19;20389;-92
2023/08/14 06:06:04;;;;;;;8.90;8.07;;;;;;;17.69;100.00;96185.66;7401216;19;20384;-92
2023/08/14 06:08:31;;;;;;;8.00;7.23;;;;;;;17.23;100.00;96118.56;7406204;19;20398;-91
2023/08/14 06:11:02;;;;;;;6.77;6.27;;;;;;;17.78;100.00;96194.09;7401452;19;20408;-91
2023/08/14 06:13:31;;;;;;;7.37;6.77;;;;;;;17.16;100.00;96089.16;7404243;19;20464;-92
2023/08/14 06:15:58;;;;;;;10.50;6.90;;;;;;;17.37;100.00;96132.78;7403958;19;20415;-91
2023/08/14 06:18:25;;;;;;;8.60;7.80;;;;;;;17.16;100.00;96105.19;7402231;19;20771;-91
2023/08/14 06:20:55;;;;;;;7.80;7.00;;;;;;;17.68;100.00;96176.88;7402816;19;20408;-92
2023/08/14 06:23:25;;;;;;;7.87;7.07;;;;;;;17.06;100.00;96083.38;7404176;19;20381;-91
2023/08/14 06:25:52;;;;;;;7.47;6.87;;;;;;;17.82;100.00;96207.50;7410212;19;20357;-94
2023/08/14 06:28:19;;;;;;;10.10;8.77;;;;;;;17.75;100.00;96197.50;7426090;19;20388;-91
2023/08/14 06:33:20;;;;;;;10.80;9.90;;;;;;;17.53;100.00;96142.41;7402815;19;20379;-91
2023/08/14 06:35:48;;;;;;;12.10;10.43;;;;;;;17.78;100.00;96196.03;7404708;19;20396;-91
2023/08/14 06:38:16;;;;;;;10.37;9.13;;;;;;;17.69;100.00;96159.69;7399710;19;20369;-92
2023/08/14 06:40:43;;;;;;;9.33;7.77;;;;;;;16.90;100.00;96082.13;7402655;19;20424;-91
2023/08/14 06:43:10;;;;;;;8.80;7.93;;;;;;;18.30;100.00;96278.41;7401418;19;20783;-92
2023/08/14 06:45:38;;;;;;;8.23;7.53;;;;;;;16.96;100.00;96064.59;7400484;19;20391;-92
2023/08/14 06:48:08;;;;;;;9.50;8.67;;;;;;;17.90;100.00;96169.69;7402649;19;20381;-93
2023/08/14 06:50:39;;;;;;;9.27;8.47;;;;;;;18.60;100.00;96237.16;7404043;19;20736;-92
2023/08/14 06:53:06;;;;;;;6.17;5.67;;;;;;;18.69;100.00;96213.47;7399925;19;20391;-92
2023/08/14 06:55:36;;;;;;;7.27;6.57;;;;;;;18.13;100.00;96091.00;7405169;19;20464;-92
2023/08/14 06:58:03;;;;;;;7.70;7.00;;;;;;;18.25;100.00;96102.09;7400591;19;20381;-92
2023/08/14 07:00:31;;;;;;;7.87;7.13;;;;;;;19.10;100.00;96184.41;7398651;19;20955;-92
2023/08/14 07:02:58;;;;;;;6.67;6.17;;;;;;;18.47;100.00;96142.28;7400105;19;20928;-92
2023/08/14 07:05:28;;;;;;;8.23;7.53;;;;;;;19.10;100.00;96231.88;7405495;19;20388;-92
2023/08/14 07:07:55;;;;;;;11.63;6.83;;;;;;;18.53;100.00;96132.72;7406967;19;20385;-91
2023/08/14 07:10:22;;;;;;;7.43;6.83;;;;;;;19.54;100.00;96284.31;7396130;19;20762;-91
2023/08/14 07:12:49;;;;;;;8.80;6.77;;;;;;;19.13;100.00;96223.84;7397638;19;20385;-91
2023/08/14 07:15:16;;;;;;;7.73;7.03;;;;;;;19.57;100.00;96283.56;7397040;19;20892;-91
2023/08/14 07:17:43;;;;;;;7.00;6.40;;;;;;;18.66;100.00;96162.59;7400475;19;20745;-92
2023/08/14 07:20:11;;;;;;;7.10;6.50;;;;;;;19.06;100.00;96244.50;7397860;19;20436;-91
2023/08/14 07:22:39;;;;;;;9.83;6.97;;;;;;;19.08;100.00;96248.31;7400337;19;20392;-92
2023/08/14 07:25:08;;;;;;;7.93;7.07;;;;;;;18.85;100.00;96227.28;7397424;19;20892;-91
2023/08/14 07:27:35;;;;;;;8.17;7.50;;;;;;;18.35;100.00;96148.00;7401629;19;20401;-91
2023/08/14 07:30:05;;;;;;;7.13;6.53;;;;;;;19.09;100.00;96244.50;7397612;19;20412;-91
2023/08/14 07:32:32;;;;;;;12.43;9.30;;;;;;;18.28;100.00;96151.41;7398479;19;20414;-93
2023/08/14 07:34:59;;;;;;;14.80;12.50;;;;;;;18.40;100.00;96169.81;7398309;19;20380;-93
2023/08/14 07:37:26;;;;;;;14.47;10.80;;;;;;;18.39;100.00;96132.69;7397392;19;20406;-92
2023/08/14 07:39:53;;;;;;;14.90;9.83;;;;;;;18.91;100.00;96203.53;7399117;19;20416;-93
2023/08/14 07:42:23;;;;;;;9.20;8.30;;;;;;;19.50;100.00;96300.41;7401548;19;20384;-94
2023/08/14 07:44:51;;;;;;;8.70;7.97;;;;;;;18.60;100.00;96186.28;7405794;19;20412;-96
2023/08/14 07:47:19;;;;;;;8.20;7.60;;;;;;;19.37;100.00;96302.72;7410984;19;20383;-93
